sensor_id;sensor_type;location;lat;lon;timestamp;temperature;humidity
68051;DHT22;54839;51.364;7.246;2024-03-08T00:00:09;2.30;99.90
68051;DHT22;54839;51.364;7.246;2024-03-08T00:02:36;2.30;99.90
68051;DHT22;54839;51.364;7.246;2024-03-08T00:05:04;2.30;99.90
68051;DHT22;54839;51.364;7.246;2024-03-08T00:07:29;2.30;99.90
68051;DHT22;54839;51.364;7.246;2024-03-08T00:09:55;2.40;99.90
68051;DHT22;54839;51.364;7.246;2024-03-08T00:12:21;2.30;99.90
68051;DHT22;54839;51.364;7.246;2024-03-08T00:14:46;2.30;99.90
68051;DHT22;54839;51.364;7.246;2024-03-08T00:17:12;2.30;99.90
68051;DHT22;54839;51.364;7.246;2024-03-08T00:19:37;2.30;99.90
68051;DHT22;54839;51.364;7.246;2024-03-08T00:22:03;2.30;99.90
68051;DHT22;54839;51.364;7.246;2024-03-08T00:24:28;2.30;99.90
68051;DHT22;54839;51.364;7.246;2024-03-08T00:26:56;2.20;99.90
68051;DHT22;54839;51.364;7.246;2024-03-08T00:29:21;2.20;99.90
68051;DHT22;54839;51.364;7.246;2024-03-08T00:31:47;2.10;99.90
68051;DHT22;54839;51.364;7.246;2024-03-08T00:34:13;2.10;99.90
68051;DHT22;54839;51.364;7.246;2024-03-08T00:36:38;2.00;99.90
68051;DHT22;54839;51.364;7.246;2024-03-08T00:39:04;2.10;99.90
68051;DHT22;54839;51.364;7.246;2024-03-08T00:41:32;2.00;99.90
68051;DHT22;54839;51.364;7.246;2024-03-08T00:43:58;1.90;99.90
68051;DHT22;54839;51.364;7.246;2024-03-08T00:46:23;2.00;99.90
68051;DHT22;54839;51.364;7.246;2024-03-08T00:48:49;1.80;99.90
68051;DHT22;54839;51.364;7.246;2024-03-08T00:51:15;1.90;99.90
68051;DHT22;54839;51.364;7.246;2024-03-08T00:53:41;2.00;99.90
68051;DHT22;54839;51.364;7.246;2024-03-08T00:56:10;1.90;99.90
68051;DHT22;54839;51.364;7.246;2024-03-08T00:58:39;1.70;99.90
68051;DHT22;54839;51.364;7.246;2024-03-08T01:01:05;1.70;99.90
68051;DHT22;54839;51.364;7.246;2024-03-08T01:03:31;1.80;99.90
68051;DHT22;54839;51.364;7.246;2024-03-08T01:05:57;1.70;99.90
68051;DHT22;54839;51.364;7.246;2024-03-08T01:08:23;1.70;99.90
68051;DHT22;54839;51.364;7.246;2024-03-08T01:10:49;1.60;99.90
68051;DHT22;54839;51.364;7.246;2024-03-08T01:13:16;1.60;99.90
68051;DHT22;54839;51.364;7.246;2024-03-08T01:15:41;1.60;99.90
68051;DHT22;54839;51.364;7.246;2024-03-08T01:18:07;1.50;99.90
68051;DHT22;54839;51.364;7.246;2024-03-08T01:20:33;1.50;99.90
68051;DHT22;54839;51.364;7.246;2024-03-08T01:22:58;1.30;99.90
68051;DHT22;54839;51.364;7.246;2024-03-08T01:25:24;1.40;99.90
68051;DHT22;54839;51.364;7.246;2024-03-08T01:27:49;1.30;99.90
68051;DHT22;54839;51.364;7.246;2024-03-08T01:30:15;1.40;99.90
68051;DHT22;54839;51.364;7.246;2024-03-08T01:32:42;1.50;99.90
68051;DHT22;54839;51.364;7.246;2024-03-08T01:35:09;1.50;99.90
68051;DHT22;54839;51.364;7.246;2024-03-08T01:37:36;1.40;99.90
68051;DHT22;54839;51.364;7.246;2024-03-08T01:40:02;1.40;99.90
68051;DHT22;54839;51.364;7.246;2024-03-08T01:42:30;1.30;99.90
68051;DHT22;54839;51.364;7.246;2024-03-08T01:44:56;1.20;99.90
68051;DHT22;54839;51.364;7.246;2024-03-08T01:47:22;1.30;99.90
68051;DHT22;54839;51.364;7.246;2024-03-08T01:49:49;1.20;99.90
68051;DHT22;54839;51.364;7.246;2024-03-08T01:52:16;1.30;99.90
68051;DHT22;54839;51.364;7.246;2024-03-08T01:54:41;1.30;99.90
68051;DHT22;54839;51.364;7.246;2024-03-08T01:57:07;1.10;99.90
68051;DHT22;54839;51.364;7.246;2024-03-08T01:59:33;1.20;99.90
68051;DHT22;54839;51.364;7.246;2024-03-08T02:02:01;1.30;99.90
68051;DHT22;54839;51.364;7.246;2024-03-08T02:04:28;1.20;99.90
68051;DHT22;54839;51.364;7.246;2024-03-08T02:06:56;1.20;99.90
68051;DHT22;54839;51.364;7.246;2024-03-08T02:09:23;1.10;99.90
68051;DHT22;54839;51.364;7.246;2024-03-08T02:11:50;1.00;99.90
68051;DHT22;54839;51.364;7.246;2024-03-08T02:14:17;1.00;99.90
68051;DHT22;54839;51.364;7.246;2024-03-08T02:16:44;1.00;99.90
68051;DHT22;54839;51.364;7.246;2024-03-08T02:19:09;1.00;99.90
68051;DHT22;54839;51.364;7.246;2024-03-08T02:21:35;1.00;99.90
68051;DHT22;54839;51.364;7.246;2024-03-08T02:24:01;0.90;99.90
68051;DHT22;54839;51.364;7.246;2024-03-08T02:26:27;1.00;99.90
68051;DHT22;54839;51.364;7.246;2024-03-08T02:28:53;0.80;99.90
68051;DHT22;54839;51.364;7.246;2024-03-08T02:31:19;0.90;99.90
68051;DHT22;54839;51.364;7.246;2024-03-08T02:33:46;0.80;99.90
68051;DHT22;54839;51.364;7.246;2024-03-08T02:36:13;0.80;99.90
68051;DHT22;54839;51.364;7.246;2024-03-08T02:38:38;0.80;99.90
68051;DHT22;54839;51.364;7.246;2024-03-08T02:41:06;0.70;99.90
68051;DHT22;54839;51.364;7.246;2024-03-08T02:43:32;0.70;99.90
68051;DHT22;54839;51.364;7.246;2024-03-08T02:45:57;0.60;99.90
68051;DHT22;54839;51.364;7.246;2024-03-08T02:48:23;0.70;99.90
68051;DHT22;54839;51.364;7.246;2024-03-08T02:50:48;0.70;99.90
68051;DHT22;54839;51.364;7.246;2024-03-08T02:53:16;0.70;99.90
68051;DHT22;54839;51.364;7.246;2024-03-08T02:55:41;0.70;99.90
68051;DHT22;54839;51.364;7.246;2024-03-08T02:58:07;0.60;99.90
68051;DHT22;54839;51.364;7.246;2024-03-08T03:00:37;0.70;99.90
68051;DHT22;54839;51.364;7.246;2024-03-08T03:03:07;0.60;99.90
68051;DHT22;54839;51.364;7.246;2024-03-08T03:05:32;0.60;99.90
68051;DHT22;54839;51.364;7.246;2024-03-08T03:07:59;0.50;99.90
68051;DHT22;54839;51.364;7.246;2024-03-08T03:10:25;0.30;99.90
68051;DHT22;54839;51.364;7.246;2024-03-08T03:12:51;0.40;99.90
68051;DHT22;54839;51.364;7.246;2024-03-08T03:15:17;0.30;99.90
68051;DHT22;54839;51.364;7.246;2024-03-08T03:17:50;0.30;99.90
68051;DHT22;54839;51.364;7.246;2024-03-08T03:20:19;0.40;99.90
68051;DHT22;54839;51.364;7.246;2024-03-08T03:22:58;0.40;99.90
68051;DHT22;54839;51.364;7.246;2024-03-08T03:25:26;0.40;99.90
68051;DHT22;54839;51.364;7.246;2024-03-08T03:27:58;0.30;99.90
68051;DHT22;54839;51.364;7.246;2024-03-08T03:30:24;0.30;99.90
68051;DHT22;54839;51.364;7.246;2024-03-08T03:32:52;0.30;99.90
68051;DHT22;54839;51.364;7.246;2024-03-08T03:35:20;0.40;99.90
68051;DHT22;54839;51.364;7.246;2024-03-08T03:37:49;0.30;99.90
68051;DHT22;54839;51.364;7.246;2024-03-08T03:40:41;0.40;99.90
68051;DHT22;54839;51.364;7.246;2024-03-08T03:43:06;0.30;99.90
68051;DHT22;54839;51.364;7.246;2024-03-08T03:45:32;0.40;99.90
68051;DHT22;54839;51.364;7.246;2024-03-08T03:48:04;0.30;99.90
68051;DHT22;54839;51.364;7.246;2024-03-08T03:50:30;0.30;99.90
68051;DHT22;54839;51.364;7.246;2024-03-08T03:52:55;0.20;99.90
68051;DHT22;54839;51.364;7.246;2024-03-08T03:55:21;0.10;99.90
68051;DHT22;54839;51.364;7.246;2024-03-08T03:57:47;0.30;99.90
68051;DHT22;54839;51.364;7.246;2024-03-08T04:00:13;0.30;99.90
68051;DHT22;54839;51.364;7.246;2024-03-08T04:02:39;0.20;99.90
68051;DHT22;54839;51.364;7.246;2024-03-08T04:05:09;0.10;99.90
68051;DHT22;54839;51.364;7.246;2024-03-08T04:07:35;0.10;99.90
68051;DHT22;54839;51.364;7.246;2024-03-08T04:10:05;0.10;99.90
68051;DHT22;54839;51.364;7.246;2024-03-08T04:12:34;0.00;99.90
68051;DHT22;54839;51.364;7.246;2024-03-08T04:15:00;0.00;99.90
68051;DHT22;54839;51.364;7.246;2024-03-08T04:17:26;0.00;99.90
68051;DHT22;54839;51.364;7.246;2024-03-08T04:19:52;0.00;99.90
68051;DHT22;54839;51.364;7.246;2024-03-08T04:22:17;-0.10;99.90
68051;DHT22;54839;51.364;7.246;2024-03-08T04:24:46;-0.20;99.90
68051;DHT22;54839;51.364;7.246;2024-03-08T04:27:13;-0.20;99.90
68051;DHT22;54839;51.364;7.246;2024-03-08T04:29:40;-0.20;99.90
68051;DHT22;54839;51.364;7.246;2024-03-08T04:32:06;-0.20;99.90
68051;DHT22;54839;51.364;7.246;2024-03-08T04:34:33;-0.20;99.90
68051;DHT22;54839;51.364;7.246;2024-03-08T04:37:00;-0.10;99.90
68051;DHT22;54839;51.364;7.246;2024-03-08T04:39:26;-0.10;99.90
68051;DHT22;54839;51.364;7.246;2024-03-08T04:41:58;-0.10;99.90
68051;DHT22;54839;51.364;7.246;2024-03-08T04:44:24;-0.10;99.90
68051;DHT22;54839;51.364;7.246;2024-03-08T04:46:50;-0.10;99.90
68051;DHT22;54839;51.364;7.246;2024-03-08T04:49:16;-0.10;99.90
68051;DHT22;54839;51.364;7.246;2024-03-08T04:51:42;-0.20;99.90
68051;DHT22;54839;51.364;7.246;2024-03-08T04:54:07;-0.10;99.90
68051;DHT22;54839;51.364;7.246;2024-03-08T04:56:33;-0.20;99.90
68051;DHT22;54839;51.364;7.246;2024-03-08T04:58:59;-0.20;99.90
68051;DHT22;54839;51.364;7.246;2024-03-08T05:01:24;-0.20;99.90
68051;DHT22;54839;51.364;7.246;2024-03-08T05:03:50;-0.40;99.90
68051;DHT22;54839;51.364;7.246;2024-03-08T05:06:16;-0.20;99.90
68051;DHT22;54839;51.364;7.246;2024-03-08T05:08:42;-0.10;99.90
68051;DHT22;54839;51.364;7.246;2024-03-08T05:11:08;0.00;99.90
68051;DHT22;54839;51.364;7.246;2024-03-08T05:13:33;-0.10;99.90
68051;DHT22;54839;51.364;7.246;2024-03-08T05:16:03;0.00;99.90
68051;DHT22;54839;51.364;7.246;2024-03-08T05:18:28;-0.30;99.90
68051;DHT22;54839;51.364;7.246;2024-03-08T05:20:54;-0.20;99.90
68051;DHT22;54839;51.364;7.246;2024-03-08T05:23:20;-0.30;99.90
68051;DHT22;54839;51.364;7.246;2024-03-08T05:25:46;-0.30;99.90
68051;DHT22;54839;51.364;7.246;2024-03-08T05:28:14;-0.30;99.90
68051;DHT22;54839;51.364;7.246;2024-03-08T05:30:40;-0.30;99.90
68051;DHT22;54839;51.364;7.246;2024-03-08T05:33:05;-0.20;99.90
68051;DHT22;54839;51.364;7.246;2024-03-08T05:35:31;-0.20;99.90
68051;DHT22;54839;51.364;7.246;2024-03-08T05:37:57;-0.20;99.90
68051;DHT22;54839;51.364;7.246;2024-03-08T05:40:23;-0.30;99.90
68051;DHT22;54839;51.364;7.246;2024-03-08T05:42:49;-0.30;99.90
68051;DHT22;54839;51.364;7.246;2024-03-08T05:45:15;-0.30;99.90
68051;DHT22;54839;51.364;7.246;2024-03-08T05:47:41;-0.30;99.90
68051;DHT22;54839;51.364;7.246;2024-03-08T05:50:08;-0.30;99.90
68051;DHT22;54839;51.364;7.246;2024-03-08T05:52:36;-0.20;99.90
68051;DHT22;54839;51.364;7.246;2024-03-08T05:55:03;-0.20;99.90
68051;DHT22;54839;51.364;7.246;2024-03-08T05:57:32;-0.20;99.90
68051;DHT22;54839;51.364;7.246;2024-03-08T05:59:58;-0.20;99.90
68051;DHT22;54839;51.364;7.246;2024-03-08T06:02:23;-0.20;99.90
68051;DHT22;54839;51.364;7.246;2024-03-08T06:04:49;-0.10;99.90
68051;DHT22;54839;51.364;7.246;2024-03-08T06:07:15;-0.10;99.90
68051;DHT22;54839;51.364;7.246;2024-03-08T06:09:42;-0.10;99.90
68051;DHT22;54839;51.364;7.246;2024-03-08T06:12:10;-0.10;99.90
68051;DHT22;54839;51.364;7.246;2024-03-08T06:14:36;-0.10;99.90
68051;DHT22;54839;51.364;7.246;2024-03-08T06:17:03;-0.10;99.90
68051;DHT22;54839;51.364;7.246;2024-03-08T06:19:31;-0.20;99.90
68051;DHT22;54839;51.364;7.246;2024-03-08T06:21:57;-0.20;99.90
68051;DHT22;54839;51.364;7.246;2024-03-08T06:24:22;-0.10;99.90
68051;DHT22;54839;51.364;7.246;2024-03-08T06:26:48;0.00;99.90
68051;DHT22;54839;51.364;7.246;2024-03-08T06:29:14;0.00;99.90
68051;DHT22;54839;51.364;7.246;2024-03-08T06:31:40;0.20;99.90
68051;DHT22;54839;51.364;7.246;2024-03-08T06:34:06;0.30;99.90
68051;DHT22;54839;51.364;7.246;2024-03-08T06:36:33;0.30;99.90
68051;DHT22;54839;51.364;7.246;2024-03-08T06:38:59;0.40;99.90
68051;DHT22;54839;51.364;7.246;2024-03-08T06:41:24;0.40;99.90
68051;DHT22;54839;51.364;7.246;2024-03-08T06:43:50;0.60;99.90
68051;DHT22;54839;51.364;7.246;2024-03-08T06:46:17;0.70;99.90
68051;DHT22;54839;51.364;7.246;2024-03-08T06:48:43;0.80;99.90
68051;DHT22;54839;51.364;7.246;2024-03-08T06:51:10;0.90;99.90
68051;DHT22;54839;51.364;7.246;2024-03-08T06:53:36;0.90;99.90
68051;DHT22;54839;51.364;7.246;2024-03-08T06:56:02;1.00;99.90
68051;DHT22;54839;51.364;7.246;2024-03-08T06:58:28;1.00;99.90
68051;DHT22;54839;51.364;7.246;2024-03-08T07:00:54;1.10;99.90
68051;DHT22;54839;51.364;7.246;2024-03-08T07:03:24;1.20;99.90
68051;DHT22;54839;51.364;7.246;2024-03-08T07:05:50;1.10;99.90
68051;DHT22;54839;51.364;7.246;2024-03-08T07:08:16;1.20;99.90
68051;DHT22;54839;51.364;7.246;2024-03-08T07:10:42;1.40;99.90
68051;DHT22;54839;51.364;7.246;2024-03-08T07:13:08;1.50;99.90
68051;DHT22;54839;51.364;7.246;2024-03-08T07:15:34;1.60;99.90
68051;DHT22;54839;51.364;7.246;2024-03-08T07:18:00;1.70;99.90
68051;DHT22;54839;51.364;7.246;2024-03-08T07:20:26;1.90;99.90
68051;DHT22;54839;51.364;7.246;2024-03-08T07:22:52;2.00;99.90
68051;DHT22;54839;51.364;7.246;2024-03-08T07:25:18;2.10;99.90
68051;DHT22;54839;51.364;7.246;2024-03-08T07:27:54;2.30;99.90
68051;DHT22;54839;51.364;7.246;2024-03-08T07:30:21;2.30;99.90
68051;DHT22;54839;51.364;7.246;2024-03-08T07:33:06;2.40;99.90
68051;DHT22;54839;51.364;7.246;2024-03-08T07:35:32;2.70;99.90
68051;DHT22;54839;51.364;7.246;2024-03-08T07:37:58;2.80;99.90
68051;DHT22;54839;51.364;7.246;2024-03-08T07:40:25;2.90;99.90
68051;DHT22;54839;51.364;7.246;2024-03-08T07:42:51;3.00;99.90
68051;DHT22;54839;51.364;7.246;2024-03-08T07:45:17;3.10;99.90
68051;DHT22;54839;51.364;7.246;2024-03-08T07:47:43;3.20;99.90
68051;DHT22;54839;51.364;7.246;2024-03-08T07:50:09;3.30;99.90
68051;DHT22;54839;51.364;7.246;2024-03-08T07:52:35;3.30;99.90
68051;DHT22;54839;51.364;7.246;2024-03-08T07:55:02;3.40;99.90
68051;DHT22;54839;51.364;7.246;2024-03-08T07:57:29;3.40;99.90
68051;DHT22;54839;51.364;7.246;2024-03-08T07:59:55;3.50;99.90
68051;DHT22;54839;51.364;7.246;2024-03-08T08:02:21;3.60;99.90
68051;DHT22;54839;51.364;7.246;2024-03-08T08:04:47;3.70;99.90
68051;DHT22;54839;51.364;7.246;2024-03-08T08:07:12;3.70;99.90
68051;DHT22;54839;51.364;7.246;2024-03-08T08:09:38;3.70;99.90
68051;DHT22;54839;51.364;7.246;2024-03-08T08:12:04;3.70;99.90
68051;DHT22;54839;51.364;7.246;2024-03-08T08:14:30;3.70;99.90
68051;DHT22;54839;51.364;7.246;2024-03-08T08:16:56;3.80;99.90
68051;DHT22;54839;51.364;7.246;2024-03-08T08:19:22;3.80;99.90
68051;DHT22;54839;51.364;7.246;2024-03-08T08:21:48;3.90;99.90
68051;DHT22;54839;51.364;7.246;2024-03-08T08:24:14;4.00;99.90
68051;DHT22;54839;51.364;7.246;2024-03-08T08:26:40;4.00;99.90
68051;DHT22;54839;51.364;7.246;2024-03-08T08:29:06;4.00;99.90
68051;DHT22;54839;51.364;7.246;2024-03-08T08:31:32;4.10;99.90
68051;DHT22;54839;51.364;7.246;2024-03-08T08:33:58;4.10;99.90
68051;DHT22;54839;51.364;7.246;2024-03-08T08:36:26;4.10;99.90
68051;DHT22;54839;51.364;7.246;2024-03-08T08:38:55;4.20;99.90
68051;DHT22;54839;51.364;7.246;2024-03-08T08:41:22;4.20;99.90
68051;DHT22;54839;51.364;7.246;2024-03-08T08:43:48;4.20;99.90
68051;DHT22;54839;51.364;7.246;2024-03-08T08:46:17;4.30;99.90
68051;DHT22;54839;51.364;7.246;2024-03-08T08:48:43;4.30;99.90
68051;DHT22;54839;51.364;7.246;2024-03-08T08:51:11;4.40;99.90
68051;DHT22;54839;51.364;7.246;2024-03-08T08:53:41;4.50;99.90
68051;DHT22;54839;51.364;7.246;2024-03-08T08:56:08;4.50;99.90
68051;DHT22;54839;51.364;7.246;2024-03-08T08:58:36;4.60;99.90
68051;DHT22;54839;51.364;7.246;2024-03-08T09:01:01;4.70;99.90
68051;DHT22;54839;51.364;7.246;2024-03-08T09:03:27;4.80;99.90
68051;DHT22;54839;51.364;7.246;2024-03-08T09:05:55;4.90;99.90
68051;DHT22;54839;51.364;7.246;2024-03-08T09:08:21;4.90;99.90
68051;DHT22;54839;51.364;7.246;2024-03-08T09:10:47;4.90;99.90
68051;DHT22;54839;51.364;7.246;2024-03-08T09:13:14;5.10;99.90
68051;DHT22;54839;51.364;7.246;2024-03-08T09:15:39;5.10;99.90
68051;DHT22;54839;51.364;7.246;2024-03-08T09:18:07;5.30;99.90
68051;DHT22;54839;51.364;7.246;2024-03-08T09:20:33;5.30;99.90
68051;DHT22;54839;51.364;7.246;2024-03-08T09:22:59;5.30;99.90
68051;DHT22;54839;51.364;7.246;2024-03-08T09:25:25;5.30;99.90
68051;DHT22;54839;51.364;7.246;2024-03-08T09:27:51;5.40;99.90
68051;DHT22;54839;51.364;7.246;2024-03-08T09:30:17;5.30;99.90
68051;DHT22;54839;51.364;7.246;2024-03-08T09:32:43;5.50;99.90
68051;DHT22;54839;51.364;7.246;2024-03-08T09:35:09;5.40;99.90
68051;DHT22;54839;51.364;7.246;2024-03-08T09:37:36;5.60;99.90
68051;DHT22;54839;51.364;7.246;2024-03-08T09:40:03;5.70;99.90
68051;DHT22;54839;51.364;7.246;2024-03-08T09:42:35;5.70;99.90
68051;DHT22;54839;51.364;7.246;2024-03-08T09:45:13;5.90;99.90
68051;DHT22;54839;51.364;7.246;2024-03-08T09:47:42;5.90;99.90
68051;DHT22;54839;51.364;7.246;2024-03-08T09:50:09;5.90;99.90
68051;DHT22;54839;51.364;7.246;2024-03-08T09:52:41;5.80;99.90
68051;DHT22;54839;51.364;7.246;2024-03-08T09:55:10;6.00;99.90
68051;DHT22;54839;51.364;7.246;2024-03-08T09:57:39;6.00;99.90
68051;DHT22;54839;51.364;7.246;2024-03-08T10:00:05;6.10;99.90
68051;DHT22;54839;51.364;7.246;2024-03-08T10:02:46;6.20;99.90
68051;DHT22;54839;51.364;7.246;2024-03-08T10:05:12;6.20;99.90
68051;DHT22;54839;51.364;7.246;2024-03-08T10:07:39;6.30;99.90
68051;DHT22;54839;51.364;7.246;2024-03-08T10:10:05;6.30;99.90
68051;DHT22;54839;51.364;7.246;2024-03-08T10:12:30;6.50;99.90
68051;DHT22;54839;51.364;7.246;2024-03-08T10:14:58;6.60;99.90
68051;DHT22;54839;51.364;7.246;2024-03-08T10:17:24;6.70;99.90
68051;DHT22;54839;51.364;7.246;2024-03-08T10:19:51;6.70;99.90
68051;DHT22;54839;51.364;7.246;2024-03-08T10:22:19;6.90;99.90
68051;DHT22;54839;51.364;7.246;2024-03-08T10:24:46;6.80;99.90
68051;DHT22;54839;51.364;7.246;2024-03-08T10:27:12;7.00;99.90
68051;DHT22;54839;51.364;7.246;2024-03-08T10:29:37;7.20;99.90
68051;DHT22;54839;51.364;7.246;2024-03-08T10:32:08;7.30;99.90
68051;DHT22;54839;51.364;7.246;2024-03-08T10:34:34;7.50;99.90
68051;DHT22;54839;51.364;7.246;2024-03-08T10:37:04;7.70;99.90
68051;DHT22;54839;51.364;7.246;2024-03-08T10:39:37;7.80;99.90
68051;DHT22;54839;51.364;7.246;2024-03-08T10:42:04;8.00;99.90
68051;DHT22;54839;51.364;7.246;2024-03-08T10:49:55;8.20;99.90
68051;DHT22;54839;51.364;7.246;2024-03-08T10:52:29;8.20;99.90
68051;DHT22;54839;51.364;7.246;2024-03-08T10:54:56;8.20;99.90
68051;DHT22;54839;51.364;7.246;2024-03-08T10:57:22;8.30;99.90
68051;DHT22;54839;51.364;7.246;2024-03-08T10:59:49;8.50;99.90
68051;DHT22;54839;51.364;7.246;2024-03-08T11:02:17;8.40;99.90
68051;DHT22;54839;51.364;7.246;2024-03-08T11:04:47;8.60;99.90
68051;DHT22;54839;51.364;7.246;2024-03-08T11:07:15;8.70;99.90
68051;DHT22;54839;51.364;7.246;2024-03-08T11:09:43;8.70;99.90
68051;DHT22;54839;51.364;7.246;2024-03-08T11:12:22;8.80;99.90
68051;DHT22;54839;51.364;7.246;2024-03-08T11:14:51;8.70;99.90
68051;DHT22;54839;51.364;7.246;2024-03-08T11:17:22;8.70;99.90
68051;DHT22;54839;51.364;7.246;2024-03-08T11:19:51;8.70;99.90
68051;DHT22;54839;51.364;7.246;2024-03-08T11:22:28;9.00;99.90
68051;DHT22;54839;51.364;7.246;2024-03-08T11:24:59;9.00;99.90
68051;DHT22;54839;51.364;7.246;2024-03-08T11:27:29;9.10;99.90
68051;DHT22;54839;51.364;7.246;2024-03-08T11:30:03;9.20;99.90
68051;DHT22;54839;51.364;7.246;2024-03-08T11:32:48;9.20;99.90
68051;DHT22;54839;51.364;7.246;2024-03-08T11:35:21;9.30;99.90
68051;DHT22;54839;51.364;7.246;2024-03-08T11:37:48;9.20;99.90
68051;DHT22;54839;51.364;7.246;2024-03-08T11:40:14;9.40;99.90
68051;DHT22;54839;51.364;7.246;2024-03-08T11:42:45;9.40;99.90
68051;DHT22;54839;51.364;7.246;2024-03-08T11:45:13;9.40;99.90
68051;DHT22;54839;51.364;7.246;2024-03-08T11:47:42;9.40;99.90
68051;DHT22;54839;51.364;7.246;2024-03-08T11:50:10;9.50;99.90
68051;DHT22;54839;51.364;7.246;2024-03-08T11:52:37;9.50;99.90
68051;DHT22;54839;51.364;7.246;2024-03-08T11:55:05;9.70;99.90
68051;DHT22;54839;51.364;7.246;2024-03-08T11:57:31;9.80;99.90
68051;DHT22;54839;51.364;7.246;2024-03-08T11:59:58;9.70;99.90
68051;DHT22;54839;51.364;7.246;2024-03-08T12:02:24;9.60;99.90
68051;DHT22;54839;51.364;7.246;2024-03-08T12:05:00;9.70;99.90
68051;DHT22;54839;51.364;7.246;2024-03-08T12:07:26;10.00;99.90
68051;DHT22;54839;51.364;7.246;2024-03-08T12:12:46;10.10;99.90
68051;DHT22;54839;51.364;7.246;2024-03-08T12:15:13;10.20;99.90
68051;DHT22;54839;51.364;7.246;2024-03-08T12:17:41;10.30;99.90
68051;DHT22;54839;51.364;7.246;2024-03-08T12:20:25;10.20;99.90
68051;DHT22;54839;51.364;7.246;2024-03-08T12:22:57;10.20;99.90
68051;DHT22;54839;51.364;7.246;2024-03-08T12:25:33;10.20;99.90
68051;DHT22;54839;51.364;7.246;2024-03-08T12:28:09;10.30;99.90
68051;DHT22;54839;51.364;7.246;2024-03-08T12:30:49;10.50;99.90
68051;DHT22;54839;51.364;7.246;2024-03-08T12:33:16;10.40;99.90
68051;DHT22;54839;51.364;7.246;2024-03-08T12:35:53;10.20;99.90
68051;DHT22;54839;51.364;7.246;2024-03-08T12:38:23;10.40;99.90
68051;DHT22;54839;51.364;7.246;2024-03-08T12:40:55;10.40;99.90
68051;DHT22;54839;51.364;7.246;2024-03-08T12:43:20;10.50;99.90
68051;DHT22;54839;51.364;7.246;2024-03-08T12:45:46;10.60;99.90
68051;DHT22;54839;51.364;7.246;2024-03-08T12:48:15;10.50;99.90
68051;DHT22;54839;51.364;7.246;2024-03-08T12:50:41;10.70;99.90
68051;DHT22;54839;51.364;7.246;2024-03-08T12:53:09;10.70;99.90
68051;DHT22;54839;51.364;7.246;2024-03-08T12:55:34;11.00;99.90
68051;DHT22;54839;51.364;7.246;2024-03-08T12:58:00;10.90;99.90
68051;DHT22;54839;51.364;7.246;2024-03-08T13:00:26;11.10;99.90
68051;DHT22;54839;51.364;7.246;2024-03-08T13:02:53;11.30;99.90
68051;DHT22;54839;51.364;7.246;2024-03-08T13:05:19;11.20;99.90
68051;DHT22;54839;51.364;7.246;2024-03-08T13:07:45;11.20;99.90
68051;DHT22;54839;51.364;7.246;2024-03-08T13:10:13;12.50;99.90
68051;DHT22;54839;51.364;7.246;2024-03-08T13:12:43;14.50;99.90
68051;DHT22;54839;51.364;7.246;2024-03-08T13:15:10;15.40;99.90
68051;DHT22;54839;51.364;7.246;2024-03-08T13:17:56;16.30;99.90
68051;DHT22;54839;51.364;7.246;2024-03-08T13:20:25;17.40;99.90
68051;DHT22;54839;51.364;7.246;2024-03-08T13:22:53;17.90;99.90
68051;DHT22;54839;51.364;7.246;2024-03-08T13:25:19;18.60;99.90
68051;DHT22;54839;51.364;7.246;2024-03-08T13:27:45;19.00;99.90
68051;DHT22;54839;51.364;7.246;2024-03-08T13:30:12;19.00;99.90
68051;DHT22;54839;51.364;7.246;2024-03-08T13:32:42;18.80;99.90
68051;DHT22;54839;51.364;7.246;2024-03-08T13:35:11;19.60;99.90
68051;DHT22;54839;51.364;7.246;2024-03-08T13:37:41;20.50;99.90
68051;DHT22;54839;51.364;7.246;2024-03-08T13:40:08;20.50;99.90
68051;DHT22;54839;51.364;7.246;2024-03-08T13:42:38;20.30;99.90
68051;DHT22;54839;51.364;7.246;2024-03-08T13:45:06;19.60;99.90
68051;DHT22;54839;51.364;7.246;2024-03-08T13:47:34;19.70;99.90
68051;DHT22;54839;51.364;7.246;2024-03-08T13:49:59;21.00;99.90
68051;DHT22;54839;51.364;7.246;2024-03-08T13:52:26;21.60;99.90
68051;DHT22;54839;51.364;7.246;2024-03-08T13:54:55;21.40;99.90
68051;DHT22;54839;51.364;7.246;2024-03-08T13:57:20;21.70;99.90
68051;DHT22;54839;51.364;7.246;2024-03-08T13:59:48;22.60;99.90
68051;DHT22;54839;51.364;7.246;2024-03-08T14:02:16;22.80;99.90
68051;DHT22;54839;51.364;7.246;2024-03-08T14:04:42;22.80;99.90
68051;DHT22;54839;51.364;7.246;2024-03-08T14:07:08;23.40;99.90
68051;DHT22;54839;51.364;7.246;2024-03-08T14:09:34;21.90;99.90
68051;DHT22;54839;51.364;7.246;2024-03-08T14:12:03;20.60;99.90
68051;DHT22;54839;51.364;7.246;2024-03-08T14:14:33;21.80;99.90
68051;DHT22;54839;51.364;7.246;2024-03-08T14:17:01;21.50;99.90
68051;DHT22;54839;51.364;7.246;2024-03-08T14:19:27;22.60;99.90
68051;DHT22;54839;51.364;7.246;2024-03-08T14:21:53;23.30;99.90
68051;DHT22;54839;51.364;7.246;2024-03-08T14:24:19;23.30;99.90
68051;DHT22;54839;51.364;7.246;2024-03-08T14:26:45;23.20;99.90
68051;DHT22;54839;51.364;7.246;2024-03-08T14:29:12;22.80;99.90
68051;DHT22;54839;51.364;7.246;2024-03-08T14:31:38;23.60;99.90
68051;DHT22;54839;51.364;7.246;2024-03-08T14:34:04;24.10;99.90
68051;DHT22;54839;51.364;7.246;2024-03-08T14:36:30;23.00;99.90
68051;DHT22;54839;51.364;7.246;2024-03-08T14:38:55;23.40;99.90
68051;DHT22;54839;51.364;7.246;2024-03-08T14:41:21;23.40;99.90
68051;DHT22;54839;51.364;7.246;2024-03-08T14:43:48;22.50;99.90
68051;DHT22;54839;51.364;7.246;2024-03-08T14:46:16;22.80;99.90
68051;DHT22;54839;51.364;7.246;2024-03-08T14:48:52;22.20;99.90
68051;DHT22;54839;51.364;7.246;2024-03-08T14:51:21;21.30;99.90
68051;DHT22;54839;51.364;7.246;2024-03-08T14:53:52;22.20;99.90
68051;DHT22;54839;51.364;7.246;2024-03-08T14:56:17;22.10;99.90
68051;DHT22;54839;51.364;7.246;2024-03-08T14:58:44;22.90;99.90
68051;DHT22;54839;51.364;7.246;2024-03-08T15:01:12;22.90;99.90
68051;DHT22;54839;51.364;7.246;2024-03-08T15:03:41;22.70;99.90
68051;DHT22;54839;51.364;7.246;2024-03-08T15:06:08;22.50;99.90
68051;DHT22;54839;51.364;7.246;2024-03-08T15:08:36;21.80;99.90
68051;DHT22;54839;51.364;7.246;2024-03-08T15:11:02;22.20;99.90
68051;DHT22;54839;51.364;7.246;2024-03-08T15:13:28;23.10;99.90
68051;DHT22;54839;51.364;7.246;2024-03-08T15:15:59;21.90;99.90
68051;DHT22;54839;51.364;7.246;2024-03-08T15:18:25;21.40;99.90
68051;DHT22;54839;51.364;7.246;2024-03-08T15:20:52;20.80;99.90
68051;DHT22;54839;51.364;7.246;2024-03-08T15:23:18;21.20;99.90
68051;DHT22;54839;51.364;7.246;2024-03-08T15:25:44;19.80;99.90
68051;DHT22;54839;51.364;7.246;2024-03-08T15:28:17;20.50;99.90
68051;DHT22;54839;51.364;7.246;2024-03-08T15:30:46;20.60;99.90
68051;DHT22;54839;51.364;7.246;2024-03-08T15:33:16;20.40;99.90
68051;DHT22;54839;51.364;7.246;2024-03-08T15:35:50;20.20;99.90
68051;DHT22;54839;51.364;7.246;2024-03-08T15:38:23;19.60;99.90
68051;DHT22;54839;51.364;7.246;2024-03-08T15:40:49;21.00;99.90
68051;DHT22;54839;51.364;7.246;2024-03-08T15:43:16;20.40;99.90
68051;DHT22;54839;51.364;7.246;2024-03-08T15:45:45;20.00;99.90
68051;DHT22;54839;51.364;7.246;2024-03-08T15:48:12;20.10;99.90